Flight Track Log - Related Links

Times and Time Zones

All times are in EDT time to prevent confusion due to time zone crossing. See the AAL1326 flight status page for this flight to view local times or setup timezone preferences in your user account.

Time Position Orientation Groundspeed Altitude Reporting Facility
EDT Latitude Longitude Course Direction KTS MPH feet Rate Location/Type
Tue 08:14:50 PM 41.9700 -87.8800 182° South 18 21  Level FlightAware ADS-B
Tue 08:15:10 PM 41.9660 -87.8840 217° Southwest 92 106 1,810 Level FlightAware ADS-B
Tue 08:15:53 PM 41.9430 -87.9120 222° Southwest 157 181 1,900 2,571 Climbing FlightAware ADS-B
Tue 08:16:13 PM 41.9320 -87.9260 223° Southwest 166 191 2,700 1,610 Climbing FlightAware ADS-B
Tue 08:16:34 PM 41.9250 -87.9340 220° Southwest 179 206 3,000 1,667 Climbing FlightAware ADS-B
Tue 08:16:49 PM 41.9080 -87.9550 223° Southwest 216 249 3,700 2,462 Climbing FlightAware ADS-B
Tue 08:17:13 PM 41.8890 -87.9770 221° Southwest 239 275 4,600 1,556 Climbing FlightAware ADS-B
Tue 08:17:43 PM 41.8590 -88.0030 213° Southwest 265 305 5,100 698 Climbing FlightAware ADS-B
Tue 08:17:56 PM 41.8440 -88.0060 188° South 270 311 5,100 1,636 Level FlightAware ADS-B
Tue 08:18:27 PM 41.8050 -88.0010 175° South 265 305 6,300 2,339 Climbing FlightAware ADS-B
Tue 08:18:55 PM 41.7700 -87.9960 174° South 284 327 7,400 2,769 Climbing FlightAware ADS-B
Tue 08:19:19 PM 41.7390 -87.9870 168° South 288 331 8,700 2,824 Climbing FlightAware ADS-B
Tue 08:20:03 PM 41.6790 -87.9670 166° South 308 354 10,600 2,591 Climbing FlightAware ADS-B
Tue 08:20:47 PM 41.6160 -87.9460 166° South 328 377 12,500 2,025 Climbing FlightAware ADS-B
Tue 08:21:23 PM 41.5600 -87.9270 166° South 371 427 13,300 1,902 Climbing FlightAware ADS-B
Tue 08:22:09 PM 41.4810 -87.9010 166° South 397 457 15,100 2,292 Climbing FlightAware ADS-B
Tue 08:22:52 PM 41.4000 -87.8810 170° South 412 474 16,700 2,430 Climbing FlightAware ADS-B
Tue 08:23:28 PM 41.3310 -87.8850 182° South 414 476 18,300 2,488 Climbing FlightAware ADS-B
Tue 08:24:14 PM 41.2400 -87.8920 183° South 430 495 20,100 2,200 Climbing FlightAware ADS-B
Tue 08:24:58 PM 41.1530 -87.8900 179° South 442 509 21,600 2,093 Climbing FlightAware ADS-B
Tue 08:25:40 PM 41.0670 -87.8870 178° South 449 517 23,100 2,211 Climbing FlightAware ADS-B
Tue 08:26:14 PM 40.9940 -87.8850 179° South 454 522 24,400 1,953 Climbing FlightAware ADS-B
Tue 08:27:06 PM 40.8850 -87.8810 178° South 462 532 25,900 1,761 Climbing FlightAware ADS-B
Tue 08:27:46 PM 40.7990 -87.8790 179° South 469 540 27,100 1,630 Climbing FlightAware ADS-B
Tue 08:28:27 PM 40.7070 -87.8760 179° South 477 549 28,100 1,465 Climbing FlightAware ADS-B
Tue 08:29:12 PM 40.6100 -87.8730 179° South 484 557 29,200 1,367 Climbing FlightAware ADS-B
Tue 08:29:46 PM 40.5360 -87.8710 179° South 489 563 29,900 1,403 Climbing FlightAware ADS-B
Tue 08:30:29 PM 40.4340 -87.8680 179° South 491 565 31,000 1,516 Climbing FlightAware ADS-B
Tue 08:31:17 PM 40.3260 -87.8650 179° South 492 566 32,200 1,500 Climbing FlightAware ADS-B
Tue 08:31:57 PM 40.2340 -87.8610 178° South 489 563 33,200 1,571 Climbing FlightAware ADS-B
Tue 08:32:41 PM 40.1340 -87.8560 178° South 485 558 34,400 1,429 Climbing FlightAware ADS-B
Tue 08:33:21 PM 40.0460 -87.8520 178° South 483 556 35,200 1,214 Climbing FlightAware ADS-B
Tue 08:34:05 PM 39.9460 -87.8480 178° South 482 555 36,100 1,116 Climbing FlightAware ADS-B
Tue 08:34:47 PM 39.8530 -87.8440 178° South 481 554 36,800 675 Climbing FlightAware ADS-B
Tue 08:35:25 PM 39.7690 -87.8400 178° South 483 556 37,000 156 Climbing FlightAware ADS-B
Tue 08:36:04 PM 39.7030 -87.8370 178° South 484 557 37,000  Level FlightAware ADS-B
Tue 08:36:53 PM 39.5710 -87.8320 178° South 486 559 37,000  Level FlightAware ADS-B
Tue 08:37:33 PM 39.4830 -87.8240 176° South 492 566 37,000  Level FlightAware ADS-B
Tue 08:38:17 PM 39.3830 -87.7920 166° South 496 571 37,000  Level FlightAware ADS-B
Tue 08:38:54 PM 39.3050 -87.7640 164° South 497 572 37,000  Level FlightAware ADS-B
Tue 08:39:39 PM 39.2020 -87.7270 164° South 498 573 37,000  Level FlightAware ADS-B
Tue 08:40:23 PM 39.1040 -87.6920 165° South 498 573 37,000  Level FlightAware ADS-B
Tue 08:41:02 PM 39.0210 -87.6630 165° South 499 574 37,000  Level FlightAware ADS-B
Tue 08:41:45 PM 38.9230 -87.6280 164° South 498 573 37,000  Level FlightAware ADS-B
Tue 08:42:29 PM 38.8230 -87.5940 165° South 497 572 37,000  Level FlightAware ADS-B
Tue 08:43:10 PM 38.7340 -87.5630 165° South 496 571 37,000  Level FlightAware ADS-B
Tue 08:43:53 PM 38.6380 -87.5290 165° South 496 571 37,000  Level FlightAware ADS-B
Tue 08:44:34 PM 38.5500 -87.4980 165° South 495 570 37,000  Level FlightAware ADS-B
Tue 08:45:18 PM 38.4510 -87.4630 165° South 494 568 37,000  Level FlightAware ADS-B
Tue 08:45:56 PM 38.3680 -87.4310 163° South 496 571 37,000  Level FlightAware ADS-B
Tue 08:46:41 PM 38.2740 -87.3700 153° Southeast 497 572 37,000  Level FlightAware ADS-B
Tue 08:47:22 PM 38.1930 -87.3150 152° Southeast 495 570 37,000  Level FlightAware ADS-B
Tue 08:47:58 PM 38.1200 -87.2660 152° Southeast 494 568 37,000  Level FlightAware ADS-B
Tue 08:48:46 PM 38.0210 -87.2050 154° Southeast 494 568 37,000  Level FlightAware ADS-B
Tue 08:49:26 PM 37.9460 -87.1610 155° Southeast 494 568 37,000  Level FlightAware ADS-B
Tue 08:50:09 PM 37.8480 -87.1030 155° Southeast 492 566 37,000  Level FlightAware ADS-B
Tue 08:50:50 PM 37.7640 -87.0540 155° Southeast 494 568 37,000  Level FlightAware ADS-B
Tue 08:51:31 PM 37.6780 -87.0020 154° Southeast 496 571 37,000  Level FlightAware ADS-B
Tue 08:52:01 PM 37.6165 -86.9652 155° Southeast 497 572 37,000  Level FlightAware ADS-B
Tue 08:52:33 PM 37.5496 -86.9257 155° Southeast 497 572 37,000  Level FlightAware ADS-B
Tue 08:53:40 PM 37.4110 -86.8450 155° Southeast 498 573 37,000  Level FlightAware ADS-B
Tue 08:54:17 PM 37.3330 -86.7990 155° Southeast 498 573 37,000  Level FlightAware ADS-B
Tue 08:54:42 PM 37.2803 -86.7678 155° Southeast 498 573 37,000  Level FlightAware ADS-B
Tue 08:55:18 PM 37.2044 -86.7236 155° Southeast 499 574 37,000  Level FlightAware ADS-B
Tue 08:55:50 PM 37.1380 -86.6847 155° Southeast 499 574 37,000  Level FlightAware ADS-B
Tue 08:56:34 PM 37.0462 -86.6311 155° Southeast 497 572 37,000  Level FlightAware ADS-B
Tue 08:57:09 PM 36.9724 -86.5881 155° Southeast 497 572 37,000  Level FlightAware ADS-B
Tue 08:57:40 PM 36.9093 -86.5516 155° Southeast 496 571 37,000  Level FlightAware ADS-B
Tue 08:58:12 PM 36.8413 -86.5124 155° Southeast 495 570 37,000  Level FlightAware ADS-B
Tue 08:58:42 PM 36.7793 -86.4768 155° Southeast 490 564 37,000  Level FlightAware ADS-B
Tue 08:59:27 PM 36.6920 -86.4260 155° Southeast 489 563 37,000  Level FlightAware ADS-B
Tue 09:00:09 PM 36.6350 -86.3930 155° Southeast 489 563 37,000  Level FlightAware ADS-B
Tue 09:00:51 PM 36.5200 -86.3280 156° South 486 559 37,000  Level FlightAware ADS-B
Tue 09:01:13 PM 36.4713 -86.2996 155° Southeast 487 560 37,000  Level FlightAware ADS-B
Tue 09:01:43 PM 36.4088 -86.2639 155° Southeast 486 559 37,000  Level FlightAware ADS-B
Tue 09:02:14 PM 36.3466 -86.2285 155° Southeast 485 558 37,000  Level FlightAware ADS-B
Tue 09:02:59 PM 36.2530 -86.1760 156° South 483 556 37,000  Level FlightAware ADS-B
Tue 09:03:21 PM 36.2090 -86.1503 155° Southeast 482 555 37,000  Level FlightAware ADS-B
Tue 09:03:52 PM 36.1466 -86.1149 155° Southeast 482 555 37,000  Level FlightAware ADS-B
Tue 09:04:24 PM 36.0832 -86.0791 155° Southeast 482 555 37,000  Level FlightAware ADS-B
Tue 09:04:54 PM 36.0217 -86.0443 155° Southeast 482 555 37,000  Level FlightAware ADS-B
Tue 09:05:28 PM 35.9522 -86.0050 155° Southeast 485 558 37,000  Level FlightAware ADS-B
Tue 09:06:14 PM 35.8575 -85.9519 156° South 488 562 37,000  Level FlightAware ADS-B
Tue 09:06:45 PM 35.7941 -85.9163 156° South 487 560 37,000  Level FlightAware ADS-B
Tue 09:07:16 PM 35.7309 -85.8809 156° South 488 562 37,000  Level FlightAware ADS-B
Tue 09:07:46 PM 35.6684 -85.8459 156° South 488 562 37,000  Level FlightAware ADS-B
Tue 09:08:33 PM 35.5720 -85.7920 156° South 488 562 37,000  Level FlightAware ADS-B
Tue 09:09:18 PM 35.4820 -85.7420 156° South 487 560 37,000  Level FlightAware ADS-B
Tue 09:10:01 PM 35.3910 -85.6920 156° South 487 560 37,000  Level FlightAware ADS-B
Tue 09:10:31 PM 35.3298 -85.6576 155° Southeast 488 562 37,000  Level FlightAware ADS-B
Tue 09:11:03 PM 35.2630 -85.6207 156° South 487 560 37,000  Level FlightAware ADS-B
Tue 09:11:34 PM 35.2003 -85.5860 156° South 489 563 37,000 97 Level FlightAware ADS-B
Tue 09:12:05 PM 35.1366 -85.5508 156° South 493 567 37,100 676 Climbing FlightAware ADS-B
Tue 09:12:45 PM 35.0538 -85.5052 156° South 490 564 37,800 1,029 Climbing FlightAware ADS-B
Tue 09:13:15 PM 34.9917 -85.4712 156° South 488 562 38,300 900 Climbing FlightAware ADS-B
Tue 09:13:45 PM 34.9290 -85.4368 156° South 489 563 38,700 700 Climbing FlightAware ADS-B
Tue 09:14:15 PM 34.8669 -85.4029 156° South 487 560 39,000 273 Climbing FlightAware ADS-B
Tue 09:14:51 PM 34.7941 -85.3631 156° South 482 555 39,000  Level FlightAware ADS-B
Tue 09:15:31 PM 34.7138 -85.3190 156° South 476 548 39,000  Level FlightAware ADS-B
Tue 09:16:02 PM 34.6526 -85.2857 156° South 474 545 39,000  Level FlightAware ADS-B
Tue 09:16:33 PM 34.5887 -85.2510 156° South 474 545 39,000  Level FlightAware ADS-B
Tue 09:17:43 PM 34.4530 -85.1770 156° South 474 545 39,000  Level FlightAware ADS-B
Tue 09:18:09 PM 34.3979 -85.1477 156° South 474 545 39,000  Level FlightAware ADS-B
Tue 09:18:39 PM 34.3366 -85.1148 156° South 474 545 39,000  Level FlightAware ADS-B
Tue 09:19:19 PM 34.2570 -85.0719 156° South 473 544 39,000  Level FlightAware ADS-B
Tue 09:19:54 PM 34.1881 -85.0350 156° South 472 543 39,000  Level FlightAware ADS-B
Tue 09:20:24 PM 34.1275 -85.0023 156° South 472 543 39,000  Level FlightAware ADS-B
Tue 09:21:00 PM 34.0560 -84.9639 156° South 471 542 39,000  Level FlightAware ADS-B
Tue 09:21:34 PM 33.9893 -84.9282 156° South 471 542 39,000  Level FlightAware ADS-B
Tue 09:22:16 PM 33.9059 -84.8838 156° South 470 541 39,000  Level FlightAware ADS-B
Tue 09:22:49 PM 33.8402 -84.8489 156° South 468 539 39,000  Level FlightAware ADS-B
Tue 09:23:23 PM 33.7730 -84.8131 156° South 468 539 39,000  Level FlightAware ADS-B
Tue 09:23:54 PM 33.7109 -84.7800 156° South 468 539 39,000  Level FlightAware ADS-B
Tue 09:24:30 PM 33.6400 -84.7425 156° South 467 537 39,000  Level FlightAware ADS-B
Tue 09:25:13 PM 33.5540 -84.6970 156° South 467 537 39,000  Level FlightAware ADS-B
Tue 09:26:20 PM 33.4240 -84.6280 156° South 464 534 39,000  Level FlightAware ADS-B
Tue 09:27:02 PM 33.3410 -84.5850 157° South 462 532 39,000  Level FlightAware ADS-B
Tue 09:27:42 PM 33.2620 -84.5430 156° South 461 531 39,000  Level FlightAware ADS-B
Tue 09:28:28 PM 33.1740 -84.4970 156° South 458 527 39,000  Level FlightAware ADS-B
Tue 09:29:08 PM 33.0970 -84.4570 156° South 458 527 39,000  Level FlightAware ADS-B
Tue 09:29:52 PM 33.0120 -84.4120 156° South 458 527 39,000  Level FlightAware ADS-B
Tue 09:30:32 PM 32.9310 -84.3700 156° South 460 529 39,000  Level FlightAware ADS-B
Tue 09:31:15 PM 32.8480 -84.3270 156° South 463 533 39,000  Level FlightAware ADS-B
Tue 09:32:12 PM 32.7360 -84.2690 156° South 467 537 39,000  Level FlightAware ADS-B
Tue 09:32:48 PM 32.6640 -84.2310 156° South 472 543 39,000  Level FlightAware ADS-B
Tue 09:33:36 PM 32.5660 -84.1810 157° South 477 549 39,000  Level FlightAware ADS-B
Tue 09:34:16 PM 32.4850 -84.1390 156° South 478 550 39,000  Level FlightAware ADS-B
Tue 09:34:58 PM 32.4010 -84.0960 157° South 479 551 39,000  Level FlightAware ADS-B
Tue 09:35:43 PM 32.3360 -84.0630 157° South 480 552 39,000  Level FlightAware ADS-B
Tue 09:36:37 PM 32.2070 -83.9960 156° South 480 552 39,000  Level FlightAware ADS-B
Tue 09:37:18 PM 32.1150 -83.9500 157° South 482 555 39,000  Level FlightAware ADS-B
Tue 09:37:58 PM 32.0330 -83.9080 157° South 485 558 39,000  Level FlightAware ADS-B
Tue 09:39:13 PM 31.8960 -83.8370 156° South 485 558 39,000  Level FlightAware ADS-B
Tue 09:39:50 PM 31.8310 -83.8030 156° South 485 558 39,000  Level FlightAware ADS-B
Tue 09:40:34 PM 31.7540 -83.7630 156° South 485 558 39,000  Level FlightAware ADS-B
Tue 09:41:10 PM 31.6920 -83.7300 156° South 485 558 39,000  Level FlightAware ADS-B
Tue 09:41:58 PM 31.6080 -83.6860 156° South 485 558 39,000  Level FlightAware ADS-B
Tue 09:42:44 PM 31.5280 -83.6450 156° South 485 558 39,000  Level FlightAware ADS-B
Tue 09:43:19 PM 31.4670 -83.6130 156° South 485 558 39,000  Level FlightAware ADS-B
Tue 09:44:08 PM 31.3820 -83.5680 156° South 485 558 39,000  Level FlightAware ADS-B
Tue 09:44:58 PM 31.1420 -83.5770 182° South 477 549 39,000  Level FlightAware ADS-B
Tue 09:45:43 PM 31.0550 -83.5470 164° South 476 548 39,000  Level FlightAware ADS-B
Tue 09:46:23 PM 30.9700 -83.5170 163° South 473 544 39,000  Level FlightAware ADS-B
Tue 09:47:05 PM 30.8840 -83.4870 163° South 473 544 39,000  Level FlightAware ADS-B
Tue 09:47:49 PM 30.7950 -83.4560 163° South 470 541 39,000  Level FlightAware ADS-B
Tue 09:48:41 PM 30.6740 -83.4160 164° South 469 540 39,000  Level FlightAware ADS-B
Tue 09:49:44 PM 30.6070 -83.3920 163° South 469 540 39,000  Level FlightAware ADS-B
Tue 09:50:20 PM 30.5440 -83.3690 163° South 469 540 39,000  Level FlightAware ADS-B
Tue 09:51:07 PM 30.4610 -83.3400 163° South 469 540 39,000  Level FlightAware ADS-B
Tue 09:51:43 PM 30.3970 -83.3170 163° South 469 540 39,000  Level FlightAware ADS-B
Tue 09:52:32 PM 30.3110 -83.2870 163° South 469 540 39,000  Level FlightAware ADS-B
Tue 09:53:10 PM 30.2440 -83.2630 163° South 469 540 39,000  Level FlightAware ADS-B
Tue 09:53:47 PM 30.1780 -83.2400 163° South 469 540 39,000  Level FlightAware ADS-B
Tue 09:54:35 PM 30.0940 -83.2100 163° South 469 540 39,000  Level FlightAware ADS-B
Tue 09:55:11 PM 30.0300 -83.1880 163° South 469 540 39,000  Level FlightAware ADS-B
Tue 09:56:00 PM 29.9440 -83.1570 163° South 469 540 39,000  Level FlightAware ADS-B
Tue 09:56:37 PM 29.8790 -83.1340 163° South 469 540 39,000  Level FlightAware ADS-B
Tue 09:57:23 PM 29.7970 -83.1060 163° South 469 540 39,000  Level FlightAware ADS-B
Tue 09:57:58 PM 29.7360 -83.0840 163° South 469 540 39,000  Level FlightAware ADS-B
Tue 09:58:47 PM 29.6490 -83.0530 163° South 469 540 39,000  Level FlightAware ADS-B
Tue 10:02:10 PM 28.9830 -82.8470 165° South 462 532 39,000  Level FlightAware ADS-B
Tue 10:02:57 PM 28.8820 -82.8140 164° South 462 532 39,000  Level FlightAware ADS-B
Tue 10:03:43 PM 28.7880 -82.7830 164° South 462 532 39,000  Level FlightAware ADS-B
Tue 10:04:15 PM 28.7230 -82.7620 164° South 462 532 39,000  Level FlightAware ADS-B
Tue 10:04:58 PM 28.6310 -82.7320 164° South 461 531 39,000  Level FlightAware ADS-B
Tue 10:05:46 PM 28.5340 -82.6990 163° South 457 526 39,000  Level FlightAware ADS-B
Tue 10:06:29 PM 28.4480 -82.6720 165° South 456 525 39,000  Level FlightAware ADS-B
Tue 10:07:07 PM 28.3690 -82.6460 164° South 456 525 39,000  Level FlightAware ADS-B
Tue 10:07:49 PM 28.2830 -82.6180 164° South 459 528 39,000  Level FlightAware ADS-B
Tue 10:08:35 PM 28.1930 -82.5880 164° South 464 534 39,000  Level FlightAware ADS-B
Tue 10:09:15 PM 28.1060 -82.5600 164° South 466 536 39,000  Level FlightAware ADS-B
Tue 10:10:01 PM 28.0090 -82.5290 164° South 470 541 39,000  Level FlightAware ADS-B
Tue 10:10:41 PM 27.9290 -82.5010 163° South 470 541 39,000  Level FlightAware ADS-B
Tue 10:11:33 PM 27.8200 -82.4610 162° South 469 540 39,000  Level FlightAware ADS-B
Tue 10:12:14 PM 27.7380 -82.4150 154° Southeast 474 545 39,000  Level FlightAware ADS-B
Tue 10:12:57 PM 27.6590 -82.3630 150° Southeast 473 544 39,000  Level FlightAware ADS-B
Tue 10:13:41 PM 27.5730 -82.3070 150° Southeast 471 542 39,000 -73 Level FlightAware ADS-B
Tue 10:14:19 PM 27.5030 -82.2610 150° Southeast 471 542 38,900 -585 Descending FlightAware ADS-B
Tue 10:15:03 PM 27.4200 -82.2070 150° Southeast 469 540 38,200 -940 Descending FlightAware ADS-B
Tue 10:15:42 PM 27.3460 -82.1590 150° Southeast 475 547 37,600 -923 Descending FlightAware ADS-B
Tue 10:16:21 PM 27.2710 -82.1110 150° Southeast 484 557 37,000 -1,271 Descending FlightAware ADS-B
Tue 10:17:07 PM 27.1830 -82.0540 150° Southeast 474 545 35,800 -2,093 Descending FlightAware ADS-B
Tue 10:17:47 PM 27.1070 -82.0050 150° Southeast 469 540 34,000 -2,714 Descending FlightAware ADS-B
Tue 10:18:31 PM 27.0300 -81.9400 143° Southeast 472 543 32,000 -2,714 Descending FlightAware ADS-B
Tue 10:19:11 PM 26.9660 -81.8730 137° Southeast 460 529 30,200 -2,625 Descending FlightAware ADS-B
Tue 10:19:51 PM 26.9060 -81.8090 136° Southeast 446 513 28,500 -2,214 Descending FlightAware ADS-B
Tue 10:20:35 PM 26.8570 -81.7570 137° Southeast 442 509 27,100 -1,012 Descending FlightAware ADS-B
Tue 10:21:14 PM 26.8080 -81.7040 136° Southeast 442 509 27,100  Level FlightAware ADS-B
Tue 10:22:01 PM 26.7500 -81.6400 135° Southeast 442 509 27,100  Level FlightAware ADS-B
Tue 10:22:38 PM 26.7030 -81.5900 136° Southeast 442 509 27,100  Level FlightAware ADS-B
Tue 10:23:26 PM 26.6430 -81.5250 136° Southeast 442 509 27,100  Level FlightAware ADS-B
Tue 10:24:02 PM 26.5980 -81.4770 136° Southeast 442 509 27,100 -4,655 Level FlightAware ADS-B
Tue 10:26:11 PM 26.3300 -81.3240 153° Southeast 371 427 14,300 -4,828 Descending FlightAware ADS-B
Tue 10:26:51 PM 26.2920 -81.2620 124° Southeast 335 386 13,500 -1,357 Descending FlightAware ADS-B
Tue 10:27:35 PM 26.2540 -81.2020 125° Southeast 322 371 12,400 -1,535 Descending FlightAware ADS-B
Tue 10:28:17 PM 26.2170 -81.1440 125° Southeast 320 368 11,300 -1,215 Descending FlightAware ADS-B
Tue 10:28:54 PM 26.1880 -81.0980 125° Southeast 312 359 10,800 -1,091 Descending FlightAware ADS-B
Tue 10:29:34 PM 26.1540 -81.0450 126° Southeast 309 356 9,900 -900 Descending FlightAware ADS-B
Tue 10:29:54 PM 26.1370 -81.0190 126° Southeast 289 333 9,900  Level FlightAware ADS-B
Tue 10:30:23 PM 26.1140 -80.9820 125° Southeast 289 333 9,900 -146 Level FlightAware ADS-B
Tue 10:30:35 PM 26.1070 -80.9660 116° Southeast 287 330 9,800 -714 Descending FlightAware ADS-B
Tue 10:31:05 PM 26.1040 -80.9400 97° East 287 330 9,400 -1,220 Descending FlightAware ADS-B
Tue 10:31:34 PM 26.1020 -80.8830 92° East 281 323 8,600 -1,385 Descending FlightAware ADS-B
Tue 10:31:44 PM 26.1020 -80.8710 90° East 280 322 8,500 -1,200 Descending FlightAware ADS-B
Tue 10:32:14 PM 26.0990 -80.8250 94° East 274 315 7,800 -1,286 Descending FlightAware ADS-B
Tue 10:32:40 PM 26.0980 -80.7890 92° East 270 311 7,300 -1,200 Descending FlightAware ADS-B
Tue 10:32:54 PM 26.0970 -80.7700 93° East 267 307 7,000 -1,091 Descending FlightAware ADS-B
Tue 10:33:24 PM 26.0950 -80.7300 93° East 261 300 6,500 -1,067 Descending FlightAware ADS-B
Tue 10:33:39 PM 26.0940 -80.7090 93° East 258 297 6,200 -1,105 Descending FlightAware ADS-B
Tue 10:34:02 PM 26.0920 -80.6820 95° East 254 292 5,800 -1,091 Descending FlightAware ADS-B
Tue 10:34:34 PM 26.0900 -80.6400 93° East 248 285 5,200 -1,068 Descending FlightAware ADS-B
Tue 10:35:15 PM 26.0890 -80.5870 91° East 241 277 4,500 -1,000 Descending FlightAware ADS-B
Tue 10:35:46 PM 26.0870 -80.5500 93° East 241 277 4,000 -955 Descending FlightAware ADS-B
Tue 10:35:59 PM 26.0860 -80.5310 93° East 241 277 3,800 -923 Descending FlightAware ADS-B
Tue 10:36:25 PM 26.0840 -80.5000 94° East 241 277 3,400 -655 Descending FlightAware ADS-B
Tue 10:36:54 PM 26.0820 -80.4630 93° East 240 276 3,200 -333 Descending FlightAware ADS-B
Tue 10:37:19 PM 26.0810 -80.4320 92° East 239 275 3,100 -327 Descending FlightAware ADS-B
Tue 10:37:49 PM 26.0790 -80.3960 94° East 238 274 2,900 -200 Descending FlightAware ADS-B
Tue 10:38:19 PM 26.0780 -80.3590 92° East 230 265 2,900 -109 Level FlightAware ADS-B
Tue 10:38:44 PM 26.0780 -80.3290 90° East 221 254 2,800 -764 Descending FlightAware ADS-B
Tue 10:39:14 PM 26.0780 -80.2970 90° East 213 245 2,200 -1,100 Descending FlightAware ADS-B
Tue 10:39:44 PM 26.0770 -80.2670 92° East 183 211 1,700 -878 Descending FlightAware ADS-B
Tue 10:39:55 PM 26.0770 -80.2570 90° East 177 204 1,600 -900 Descending FlightAware ADS-B
Tue 10:40:24 PM 26.0770 -80.2310 90° East 162 186 1,100 -857 Descending FlightAware ADS-B
Tue 10:41:05 PM 26.0770 -80.2000 90° East 148 170 600 -831 Descending FlightAware ADS-B
Tue 10:41:29 PM 26.0770 -80.1810 90° East 147 169 200 -462 Descending FlightAware ADS-B
Tue 10:41:57 PM 26.0770 -80.1630 90° East 147 169 200  Level FlightAware ADS-B

Login

Don't have an account? Register now (free) for customized features, flight alerts, and more!